sensor_id;sensor_type;location;lat;lon;timestamp;P1;durP1;ratioP1;P2;durP2;ratioP2
10805;SDS011;5455;53.224;6.000;2023-01-23T00:01:27;3.70;;;1.33;;
10805;SDS011;5455;53.224;6.000;2023-01-23T00:03:57;3.53;;;1.33;;
10805;SDS011;5455;53.224;6.000;2023-01-23T00:06:24;3.67;;;1.60;;
10805;SDS011;5455;53.224;6.000;2023-01-23T00:08:52;4.50;;;1.40;;
10805;SDS011;5455;53.224;6.000;2023-01-23T00:11:20;3.67;;;1.60;;
10805;SDS011;5455;53.224;6.000;2023-01-23T00:13:48;3.50;;;1.60;;
10805;SDS011;5455;53.224;6.000;2023-01-23T00:16:18;4.67;;;1.70;;
10805;SDS011;5455;53.224;6.000;2023-01-23T00:18:47;6.03;;;1.50;;
10805;SDS011;5455;53.224;6.000;2023-01-23T00:21:16;4.03;;;1.40;;
10805;SDS011;5455;53.224;6.000;2023-01-23T00:23:52;8.30;;;2.37;;
10805;SDS011;5455;53.224;6.000;2023-01-23T00:26:24;3.60;;;1.50;;
10805;SDS011;5455;53.224;6.000;2023-01-23T00:28:53;5.33;;;1.60;;
10805;SDS011;5455;53.224;6.000;2023-01-23T00:31:22;6.37;;;1.90;;
10805;SDS011;5455;53.224;6.000;2023-01-23T00:33:58;5.40;;;1.60;;
10805;SDS011;5455;53.224;6.000;2023-01-23T00:36:32;3.23;;;1.47;;
10805;SDS011;5455;53.224;6.000;2023-01-23T00:39:03;3.23;;;1.60;;
10805;SDS011;5455;53.224;6.000;2023-01-23T00:41:32;5.73;;;1.83;;
10805;SDS011;5455;53.224;6.000;2023-01-23T00:44:00;4.17;;;1.70;;
10805;SDS011;5455;53.224;6.000;2023-01-23T00:46:27;6.10;;;1.93;;
10805;SDS011;5455;53.224;6.000;2023-01-23T00:48:55;5.90;;;1.63;;
10805;SDS011;5455;53.224;6.000;2023-01-23T00:51:22;5.03;;;1.87;;
10805;SDS011;5455;53.224;6.000;2023-01-23T00:53:50;6.33;;;1.80;;
10805;SDS011;5455;53.224;6.000;2023-01-23T00:56:17;3.03;;;1.53;;
10805;SDS011;5455;53.224;6.000;2023-01-23T00:58:44;3.40;;;1.70;;
10805;SDS011;5455;53.224;6.000;2023-01-23T01:01:12;3.80;;;1.87;;
10805;SDS011;5455;53.224;6.000;2023-01-23T01:03:40;4.40;;;1.87;;
10805;SDS011;5455;53.224;6.000;2023-01-23T01:06:08;7.90;;;2.07;;
10805;SDS011;5455;53.224;6.000;2023-01-23T01:08:35;4.90;;;2.20;;
10805;SDS011;5455;53.224;6.000;2023-01-23T01:11:03;3.23;;;2.13;;
10805;SDS011;5455;53.224;6.000;2023-01-23T01:13:30;4.43;;;1.87;;
10805;SDS011;5455;53.224;6.000;2023-01-23T01:15:57;4.43;;;1.83;;
10805;SDS011;5455;53.224;6.000;2023-01-23T01:18:27;3.40;;;1.90;;
10805;SDS011;5455;53.224;6.000;2023-01-23T01:20:55;5.07;;;2.20;;
10805;SDS011;5455;53.224;6.000;2023-01-23T01:23:23;3.83;;;1.60;;
10805;SDS011;5455;53.224;6.000;2023-01-23T01:25:51;4.10;;;2.07;;
10805;SDS011;5455;53.224;6.000;2023-01-23T01:28:19;2.77;;;1.83;;
10805;SDS011;5455;53.224;6.000;2023-01-23T01:30:46;4.93;;;2.20;;
10805;SDS011;5455;53.224;6.000;2023-01-23T01:33:14;4.70;;;1.90;;
10805;SDS011;5455;53.224;6.000;2023-01-23T01:35:41;5.93;;;2.17;;
10805;SDS011;5455;53.224;6.000;2023-01-23T01:38:08;5.50;;;2.10;;
10805;SDS011;5455;53.224;6.000;2023-01-23T01:40:35;8.43;;;2.50;;
10805;SDS011;5455;53.224;6.000;2023-01-23T01:43:07;4.10;;;2.57;;
10805;SDS011;5455;53.224;6.000;2023-01-23T01:57:09;5.90;;;2.40;;
10805;SDS011;5455;53.224;6.000;2023-01-23T02:02:18;4.83;;;2.13;;
10805;SDS011;5455;53.224;6.000;2023-01-23T02:05:04;5.40;;;1.97;;
10805;SDS011;5455;53.224;6.000;2023-01-23T02:07:45;5.23;;;1.93;;
10805;SDS011;5455;53.224;6.000;2023-01-23T02:10:17;5.27;;;2.17;;
10805;SDS011;5455;53.224;6.000;2023-01-23T02:12:46;3.37;;;2.20;;
10805;SDS011;5455;53.224;6.000;2023-01-23T02:15:15;3.57;;;1.97;;
10805;SDS011;5455;53.224;6.000;2023-01-23T02:17:43;7.57;;;2.53;;
10805;SDS011;5455;53.224;6.000;2023-01-23T02:20:18;5.57;;;2.07;;
10805;SDS011;5455;53.224;6.000;2023-01-23T02:25:38;4.87;;;2.47;;
10805;SDS011;5455;53.224;6.000;2023-01-23T02:28:13;6.33;;;2.03;;
10805;SDS011;5455;53.224;6.000;2023-01-23T02:30:43;7.27;;;2.00;;
10805;SDS011;5455;53.224;6.000;2023-01-23T02:35:49;3.10;;;1.70;;
10805;SDS011;5455;53.224;6.000;2023-01-23T02:38:17;4.20;;;1.93;;
10805;SDS011;5455;53.224;6.000;2023-01-23T02:40:49;3.63;;;1.73;;
10805;SDS011;5455;53.224;6.000;2023-01-23T02:43:24;5.27;;;2.00;;
10805;SDS011;5455;53.224;6.000;2023-01-23T02:46:05;4.67;;;2.30;;
10805;SDS011;5455;53.224;6.000;2023-01-23T02:48:35;5.33;;;2.00;;
10805;SDS011;5455;53.224;6.000;2023-01-23T02:51:03;4.00;;;1.77;;
10805;SDS011;5455;53.224;6.000;2023-01-23T02:53:30;4.10;;;1.90;;
10805;SDS011;5455;53.224;6.000;2023-01-23T02:55:57;3.27;;;1.80;;
10805;SDS011;5455;53.224;6.000;2023-01-23T02:58:26;4.67;;;1.90;;
10805;SDS011;5455;53.224;6.000;2023-01-23T03:01:12;3.93;;;1.90;;
10805;SDS011;5455;53.224;6.000;2023-01-23T03:03:39;4.67;;;1.87;;
10805;SDS011;5455;53.224;6.000;2023-01-23T03:06:08;3.10;;;1.90;;
10805;SDS011;5455;53.224;6.000;2023-01-23T03:08:36;5.23;;;1.93;;
10805;SDS011;5455;53.224;6.000;2023-01-23T03:11:15;6.30;;;2.00;;
10805;SDS011;5455;53.224;6.000;2023-01-23T03:13:44;4.53;;;2.07;;
10805;SDS011;5455;53.224;6.000;2023-01-23T03:16:12;4.73;;;2.10;;
10805;SDS011;5455;53.224;6.000;2023-01-23T03:18:40;7.33;;;2.30;;
10805;SDS011;5455;53.224;6.000;2023-01-23T03:21:19;5.13;;;2.10;;
10805;SDS011;5455;53.224;6.000;2023-01-23T03:23:47;6.87;;;2.30;;
10805;SDS011;5455;53.224;6.000;2023-01-23T03:26:14;5.93;;;2.57;;
10805;SDS011;5455;53.224;6.000;2023-01-23T03:28:45;4.30;;;1.80;;
10805;SDS011;5455;53.224;6.000;2023-01-23T03:31:31;4.10;;;1.60;;
10805;SDS011;5455;53.224;6.000;2023-01-23T03:33:58;3.27;;;1.93;;
10805;SDS011;5455;53.224;6.000;2023-01-23T03:36:26;4.50;;;1.70;;
10805;SDS011;5455;53.224;6.000;2023-01-23T03:38:53;3.00;;;1.77;;
10805;SDS011;5455;53.224;6.000;2023-01-23T03:41:39;5.77;;;2.10;;
10805;SDS011;5455;53.224;6.000;2023-01-23T03:44:07;5.37;;;2.50;;
10805;SDS011;5455;53.224;6.000;2023-01-23T03:46:35;6.70;;;2.80;;
10805;SDS011;5455;53.224;6.000;2023-01-23T03:49:02;6.87;;;2.60;;
10805;SDS011;5455;53.224;6.000;2023-01-23T03:51:29;6.57;;;2.30;;
10805;SDS011;5455;53.224;6.000;2023-01-23T03:53:56;5.53;;;2.20;;
10805;SDS011;5455;53.224;6.000;2023-01-23T03:56:24;6.10;;;2.20;;
10805;SDS011;5455;53.224;6.000;2023-01-23T03:58:51;5.73;;;2.23;;
10805;SDS011;5455;53.224;6.000;2023-01-23T04:01:20;3.30;;;1.63;;
10805;SDS011;5455;53.224;6.000;2023-01-23T04:03:47;3.00;;;1.80;;
10805;SDS011;5455;53.224;6.000;2023-01-23T04:06:16;4.33;;;1.80;;
10805;SDS011;5455;53.224;6.000;2023-01-23T04:08:45;4.23;;;1.63;;
10805;SDS011;5455;53.224;6.000;2023-01-23T04:11:12;4.10;;;1.87;;
10805;SDS011;5455;53.224;6.000;2023-01-23T04:13:40;5.07;;;2.10;;
10805;SDS011;5455;53.224;6.000;2023-01-23T04:16:07;2.90;;;1.80;;
10805;SDS011;5455;53.224;6.000;2023-01-23T04:18:34;4.67;;;2.27;;
10805;SDS011;5455;53.224;6.000;2023-01-23T04:21:02;5.70;;;2.73;;
10805;SDS011;5455;53.224;6.000;2023-01-23T04:23:29;7.20;;;2.00;;
10805;SDS011;5455;53.224;6.000;2023-01-23T04:25:56;6.07;;;2.27;;
10805;SDS011;5455;53.224;6.000;2023-01-23T04:28:24;5.83;;;1.87;;
10805;SDS011;5455;53.224;6.000;2023-01-23T04:30:51;6.13;;;2.00;;
10805;SDS011;5455;53.224;6.000;2023-01-23T04:33:25;3.33;;;1.60;;
10805;SDS011;5455;53.224;6.000;2023-01-23T04:35:57;5.33;;;2.30;;
10805;SDS011;5455;53.224;6.000;2023-01-23T04:38:28;3.73;;;1.73;;
10805;SDS011;5455;53.224;6.000;2023-01-23T04:41:02;3.93;;;1.87;;
10805;SDS011;5455;53.224;6.000;2023-01-23T04:43:33;5.83;;;1.80;;
10805;SDS011;5455;53.224;6.000;2023-01-23T04:46:05;3.93;;;1.73;;
10805;SDS011;5455;53.224;6.000;2023-01-23T04:48:54;4.77;;;1.80;;
10805;SDS011;5455;53.224;6.000;2023-01-23T04:51:22;5.30;;;2.20;;
10805;SDS011;5455;53.224;6.000;2023-01-23T04:53:49;2.87;;;1.60;;
10805;SDS011;5455;53.224;6.000;2023-01-23T04:56:21;2.93;;;1.90;;
10805;SDS011;5455;53.224;6.000;2023-01-23T04:58:48;5.40;;;1.90;;
10805;SDS011;5455;53.224;6.000;2023-01-23T05:01:18;5.83;;;2.40;;
10805;SDS011;5455;53.224;6.000;2023-01-23T05:03:54;4.93;;;2.00;;
10805;SDS011;5455;53.224;6.000;2023-01-23T05:06:21;4.57;;;2.07;;
10805;SDS011;5455;53.224;6.000;2023-01-23T05:08:50;4.27;;;2.20;;
10805;SDS011;5455;53.224;6.000;2023-01-23T05:11:30;3.27;;;1.97;;
10805;SDS011;5455;53.224;6.000;2023-01-23T05:13:58;3.37;;;2.20;;
10805;SDS011;5455;53.224;6.000;2023-01-23T05:16:27;2.63;;;2.10;;
10805;SDS011;5455;53.224;6.000;2023-01-23T05:19:20;4.97;;;2.30;;
10805;SDS011;5455;53.224;6.000;2023-01-23T05:21:48;4.80;;;2.07;;
10805;SDS011;5455;53.224;6.000;2023-01-23T05:24:19;4.97;;;1.80;;
10805;SDS011;5455;53.224;6.000;2023-01-23T05:26:47;5.73;;;2.43;;
10805;SDS011;5455;53.224;6.000;2023-01-23T05:29:16;3.03;;;1.60;;
10805;SDS011;5455;53.224;6.000;2023-01-23T05:31:55;3.87;;;2.10;;
10805;SDS011;5455;53.224;6.000;2023-01-23T05:34:37;5.27;;;2.23;;
10805;SDS011;5455;53.224;6.000;2023-01-23T05:37:28;4.50;;;2.30;;
10805;SDS011;5455;53.224;6.000;2023-01-23T05:40:03;4.57;;;2.40;;
10805;SDS011;5455;53.224;6.000;2023-01-23T05:42:51;5.63;;;2.10;;
10805;SDS011;5455;53.224;6.000;2023-01-23T05:45:36;4.17;;;2.43;;
10805;SDS011;5455;53.224;6.000;2023-01-23T05:48:10;3.33;;;2.13;;
10805;SDS011;5455;53.224;6.000;2023-01-23T05:50:37;5.00;;;2.53;;
10805;SDS011;5455;53.224;6.000;2023-01-23T05:53:04;5.17;;;2.33;;
10805;SDS011;5455;53.224;6.000;2023-01-23T05:55:32;5.67;;;2.27;;
10805;SDS011;5455;53.224;6.000;2023-01-23T05:57:59;3.50;;;2.27;;
10805;SDS011;5455;53.224;6.000;2023-01-23T06:00:45;5.33;;;2.53;;
10805;SDS011;5455;53.224;6.000;2023-01-23T06:03:35;3.47;;;2.27;;
10805;SDS011;5455;53.224;6.000;2023-01-23T06:06:17;2.93;;;2.30;;
10805;SDS011;5455;53.224;6.000;2023-01-23T06:08:45;5.13;;;2.50;;
10805;SDS011;5455;53.224;6.000;2023-01-23T06:11:12;5.60;;;2.97;;
10805;SDS011;5455;53.224;6.000;2023-01-23T06:13:39;5.17;;;2.73;;
10805;SDS011;5455;53.224;6.000;2023-01-23T06:16:07;5.50;;;2.43;;
10805;SDS011;5455;53.224;6.000;2023-01-23T06:18:36;3.63;;;2.20;;
10805;SDS011;5455;53.224;6.000;2023-01-23T06:21:04;4.33;;;2.87;;
10805;SDS011;5455;53.224;6.000;2023-01-23T06:23:33;3.67;;;2.47;;
10805;SDS011;5455;53.224;6.000;2023-01-23T06:26:01;4.77;;;2.40;;
10805;SDS011;5455;53.224;6.000;2023-01-23T06:28:30;5.77;;;2.97;;
10805;SDS011;5455;53.224;6.000;2023-01-23T06:31:01;7.17;;;3.00;;
10805;SDS011;5455;53.224;6.000;2023-01-23T06:33:37;5.03;;;2.90;;
10805;SDS011;5455;53.224;6.000;2023-01-23T06:36:08;7.47;;;2.70;;
10805;SDS011;5455;53.224;6.000;2023-01-23T06:38:36;5.27;;;2.90;;
10805;SDS011;5455;53.224;6.000;2023-01-23T06:41:07;5.10;;;2.87;;
10805;SDS011;5455;53.224;6.000;2023-01-23T06:43:37;4.97;;;3.13;;
10805;SDS011;5455;53.224;6.000;2023-01-23T06:46:10;5.70;;;3.83;;
10805;SDS011;5455;53.224;6.000;2023-01-23T06:48:37;4.90;;;3.00;;
10805;SDS011;5455;53.224;6.000;2023-01-23T06:51:06;4.13;;;2.60;;
10805;SDS011;5455;53.224;6.000;2023-01-23T06:53:33;4.27;;;2.70;;
10805;SDS011;5455;53.224;6.000;2023-01-23T06:56:01;4.77;;;2.90;;
10805;SDS011;5455;53.224;6.000;2023-01-23T06:58:35;4.50;;;3.07;;
10805;SDS011;5455;53.224;6.000;2023-01-23T07:01:11;4.13;;;2.80;;
10805;SDS011;5455;53.224;6.000;2023-01-23T07:04:01;4.60;;;2.73;;
10805;SDS011;5455;53.224;6.000;2023-01-23T07:06:29;6.60;;;3.67;;
10805;SDS011;5455;53.224;6.000;2023-01-23T07:08:57;3.97;;;2.70;;
10805;SDS011;5455;53.224;6.000;2023-01-23T07:11:24;4.70;;;2.90;;
10805;SDS011;5455;53.224;6.000;2023-01-23T07:13:54;6.23;;;3.30;;
10805;SDS011;5455;53.224;6.000;2023-01-23T07:16:22;3.97;;;3.17;;
10805;SDS011;5455;53.224;6.000;2023-01-23T07:18:52;4.07;;;2.90;;
10805;SDS011;5455;53.224;6.000;2023-01-23T07:21:20;4.87;;;3.47;;
10805;SDS011;5455;53.224;6.000;2023-01-23T07:23:47;4.83;;;3.23;;
10805;SDS011;5455;53.224;6.000;2023-01-23T07:26:14;4.53;;;3.43;;
10805;SDS011;5455;53.224;6.000;2023-01-23T07:28:41;4.87;;;3.17;;
10805;SDS011;5455;53.224;6.000;2023-01-23T07:31:07;5.70;;;3.50;;
10805;SDS011;5455;53.224;6.000;2023-01-23T07:33:35;6.20;;;3.60;;
10805;SDS011;5455;53.224;6.000;2023-01-23T07:36:05;5.87;;;3.83;;
10805;SDS011;5455;53.224;6.000;2023-01-23T07:38:33;6.03;;;3.70;;
10805;SDS011;5455;53.224;6.000;2023-01-23T07:41:01;9.30;;;3.90;;
10805;SDS011;5455;53.224;6.000;2023-01-23T07:43:27;4.63;;;3.30;;
10805;SDS011;5455;53.224;6.000;2023-01-23T07:45:56;4.50;;;3.63;;
10805;SDS011;5455;53.224;6.000;2023-01-23T07:48:27;6.13;;;4.07;;
10805;SDS011;5455;53.224;6.000;2023-01-23T07:50:55;5.03;;;3.73;;
10805;SDS011;5455;53.224;6.000;2023-01-23T07:53:22;6.97;;;4.00;;
10805;SDS011;5455;53.224;6.000;2023-01-23T07:55:49;5.30;;;3.80;;
10805;SDS011;5455;53.224;6.000;2023-01-23T07:58:17;4.47;;;3.67;;
10805;SDS011;5455;53.224;6.000;2023-01-23T08:00:44;6.57;;;3.83;;
10805;SDS011;5455;53.224;6.000;2023-01-23T08:03:11;5.13;;;3.70;;
10805;SDS011;5455;53.224;6.000;2023-01-23T08:05:38;4.73;;;3.97;;
10805;SDS011;5455;53.224;6.000;2023-01-23T08:08:07;6.00;;;3.80;;
10805;SDS011;5455;53.224;6.000;2023-01-23T08:10:39;9.47;;;4.00;;
10805;SDS011;5455;53.224;6.000;2023-01-23T08:13:07;4.40;;;4.00;;
10805;SDS011;5455;53.224;6.000;2023-01-23T08:15:35;4.57;;;3.57;;
10805;SDS011;5455;53.224;6.000;2023-01-23T08:18:04;4.73;;;3.83;;
10805;SDS011;5455;53.224;6.000;2023-01-23T08:20:31;4.13;;;3.60;;
10805;SDS011;5455;53.224;6.000;2023-01-23T08:22:58;4.93;;;4.00;;
10805;SDS011;5455;53.224;6.000;2023-01-23T08:25:27;7.33;;;4.40;;
10805;SDS011;5455;53.224;6.000;2023-01-23T08:27:55;4.13;;;3.70;;
10805;SDS011;5455;53.224;6.000;2023-01-23T08:30:22;8.97;;;4.03;;
10805;SDS011;5455;53.224;6.000;2023-01-23T08:32:50;8.07;;;3.47;;
10805;SDS011;5455;53.224;6.000;2023-01-23T08:35:17;5.83;;;4.00;;
10805;SDS011;5455;53.224;6.000;2023-01-23T08:37:44;6.23;;;4.30;;
10805;SDS011;5455;53.224;6.000;2023-01-23T08:40:11;8.13;;;4.67;;
10805;SDS011;5455;53.224;6.000;2023-01-23T08:42:38;10.30;;;5.10;;
10805;SDS011;5455;53.224;6.000;2023-01-23T08:45:05;11.17;;;5.80;;
10805;SDS011;5455;53.224;6.000;2023-01-23T08:47:33;7.03;;;5.60;;
10805;SDS011;5455;53.224;6.000;2023-01-23T08:50:05;6.13;;;4.73;;
10805;SDS011;5455;53.224;6.000;2023-01-23T08:52:33;7.70;;;4.43;;
10805;SDS011;5455;53.224;6.000;2023-01-23T08:55:00;7.67;;;5.00;;
10805;SDS011;5455;53.224;6.000;2023-01-23T08:57:28;9.13;;;5.30;;
10805;SDS011;5455;53.224;6.000;2023-01-23T08:59:56;5.73;;;5.13;;
10805;SDS011;5455;53.224;6.000;2023-01-23T09:02:23;7.97;;;4.70;;
10805;SDS011;5455;53.224;6.000;2023-01-23T09:04:50;7.40;;;4.63;;
10805;SDS011;5455;53.224;6.000;2023-01-23T09:07:17;7.57;;;5.30;;
10805;SDS011;5455;53.224;6.000;2023-01-23T09:09:44;9.07;;;4.43;;
10805;SDS011;5455;53.224;6.000;2023-01-23T09:12:11;7.87;;;4.50;;
10805;SDS011;5455;53.224;6.000;2023-01-23T09:14:38;7.53;;;5.00;;
10805;SDS011;5455;53.224;6.000;2023-01-23T09:17:06;6.93;;;4.40;;
10805;SDS011;5455;53.224;6.000;2023-01-23T09:19:33;6.30;;;3.90;;
10805;SDS011;5455;53.224;6.000;2023-01-23T09:22:00;7.47;;;4.63;;
10805;SDS011;5455;53.224;6.000;2023-01-23T09:24:27;6.33;;;4.20;;
10805;SDS011;5455;53.224;6.000;2023-01-23T09:26:54;7.80;;;4.70;;
10805;SDS011;5455;53.224;6.000;2023-01-23T09:29:21;6.13;;;3.70;;
10805;SDS011;5455;53.224;6.000;2023-01-23T09:31:48;7.13;;;4.10;;
10805;SDS011;5455;53.224;6.000;2023-01-23T09:34:15;6.70;;;3.43;;
10805;SDS011;5455;53.224;6.000;2023-01-23T09:36:43;5.53;;;3.47;;
10805;SDS011;5455;53.224;6.000;2023-01-23T09:39:10;6.00;;;3.80;;
10805;SDS011;5455;53.224;6.000;2023-01-23T09:41:38;6.87;;;3.33;;
10805;SDS011;5455;53.224;6.000;2023-01-23T09:44:09;5.30;;;2.90;;
10805;SDS011;5455;53.224;6.000;2023-01-23T09:46:56;4.20;;;3.53;;
10805;SDS011;5455;53.224;6.000;2023-01-23T09:52:11;5.53;;;4.17;;
10805;SDS011;5455;53.224;6.000;2023-01-23T09:54:44;5.27;;;3.40;;
10805;SDS011;5455;53.224;6.000;2023-01-23T09:57:23;4.03;;;3.30;;
10805;SDS011;5455;53.224;6.000;2023-01-23T10:00:00;6.03;;;3.23;;
10805;SDS011;5455;53.224;6.000;2023-01-23T10:02:31;3.57;;;2.90;;
10805;SDS011;5455;53.224;6.000;2023-01-23T10:04:59;4.07;;;2.97;;
10805;SDS011;5455;53.224;6.000;2023-01-23T10:25:01;3.53;;;2.30;;
10805;SDS011;5455;53.224;6.000;2023-01-23T10:27:46;4.13;;;2.30;;
10805;SDS011;5455;53.224;6.000;2023-01-23T10:30:33;2.80;;;2.00;;
10805;SDS011;5455;53.224;6.000;2023-01-23T10:33:12;2.53;;;2.13;;
10805;SDS011;5455;53.224;6.000;2023-01-23T10:35:48;3.73;;;2.00;;
10805;SDS011;5455;53.224;6.000;2023-01-23T10:38:55;3.20;;;1.93;;
10805;SDS011;5455;53.224;6.000;2023-01-23T10:41:26;2.30;;;2.10;;
10805;SDS011;5455;53.224;6.000;2023-01-23T10:43:54;2.13;;;1.90;;
10805;SDS011;5455;53.224;6.000;2023-01-23T10:46:32;2.87;;;1.70;;
10805;SDS011;5455;53.224;6.000;2023-01-23T10:49:04;2.00;;;1.50;;
10805;SDS011;5455;53.224;6.000;2023-01-23T10:51:34;2.03;;;1.40;;
10805;SDS011;5455;53.224;6.000;2023-01-23T10:54:24;1.97;;;1.30;;
10805;SDS011;5455;53.224;6.000;2023-01-23T11:04:40;2.33;;;1.87;;
10805;SDS011;5455;53.224;6.000;2023-01-23T11:07:25;3.80;;;2.03;;
10805;SDS011;5455;53.224;6.000;2023-01-23T11:10:01;2.07;;;1.70;;
10805;SDS011;5455;53.224;6.000;2023-01-23T11:12:47;1.53;;;1.43;;
10805;SDS011;5455;53.224;6.000;2023-01-23T11:15:30;1.30;;;1.10;;
10805;SDS011;5455;53.224;6.000;2023-01-23T11:17:59;1.93;;;1.10;;
10805;SDS011;5455;53.224;6.000;2023-01-23T11:20:31;2.13;;;1.13;;
10805;SDS011;5455;53.224;6.000;2023-01-23T11:25:45;1.30;;;1.20;;
10805;SDS011;5455;53.224;6.000;2023-01-23T11:28:26;2.20;;;1.43;;
10805;SDS011;5455;53.224;6.000;2023-01-23T11:31:20;1.20;;;0.90;;
10805;SDS011;5455;53.224;6.000;2023-01-23T11:36:39;3.73;;;1.20;;
10805;SDS011;5455;53.224;6.000;2023-01-23T11:41:50;1.77;;;1.40;;
10805;SDS011;5455;53.224;6.000;2023-01-23T11:44:21;1.30;;;1.20;;
10805;SDS011;5455;53.224;6.000;2023-01-23T11:49:49;3.17;;;1.60;;
10805;SDS011;5455;53.224;6.000;2023-01-23T12:10:01;2.50;;;1.90;;
10805;SDS011;5455;53.224;6.000;2023-01-23T12:21:41;2.17;;;1.80;;
10805;SDS011;5455;53.224;6.000;2023-01-23T12:24:25;1.70;;;1.60;;
10805;SDS011;5455;53.224;6.000;2023-01-23T12:33:15;2.87;;;2.40;;
10805;SDS011;5455;53.224;6.000;2023-01-23T12:41:35;3.67;;;1.97;;
10805;SDS011;5455;53.224;6.000;2023-01-23T12:44:13;2.40;;;1.97;;
10805;SDS011;5455;53.224;6.000;2023-01-23T12:49:51;2.13;;;1.80;;
10805;SDS011;5455;53.224;6.000;2023-01-23T12:52:32;2.17;;;1.97;;
10805;SDS011;5455;53.224;6.000;2023-01-23T12:57:54;3.20;;;1.90;;
10805;SDS011;5455;53.224;6.000;2023-01-23T13:00:41;4.13;;;2.40;;
10805;SDS011;5455;53.224;6.000;2023-01-23T13:06:32;2.70;;;2.13;;
10805;SDS011;5455;53.224;6.000;2023-01-23T13:09:05;2.70;;;2.50;;
10805;SDS011;5455;53.224;6.000;2023-01-23T13:11:48;6.57;;;2.63;;
10805;SDS011;5455;53.224;6.000;2023-01-23T13:14:50;3.60;;;2.60;;
10805;SDS011;5455;53.224;6.000;2023-01-23T13:17:48;2.93;;;2.03;;
10805;SDS011;5455;53.224;6.000;2023-01-23T13:26:10;3.43;;;2.27;;
10805;SDS011;5455;53.224;6.000;2023-01-23T13:31:31;2.47;;;2.10;;
10805;SDS011;5455;53.224;6.000;2023-01-23T13:34:46;3.17;;;2.43;;
10805;SDS011;5455;53.224;6.000;2023-01-23T13:37:30;3.73;;;3.40;;
10805;SDS011;5455;53.224;6.000;2023-01-23T13:40:18;2.60;;;2.20;;
10805;SDS011;5455;53.224;6.000;2023-01-23T13:42:47;3.00;;;2.20;;
10805;SDS011;5455;53.224;6.000;2023-01-23T13:50:46;2.97;;;2.37;;
10805;SDS011;5455;53.224;6.000;2023-01-23T13:53:32;3.20;;;2.50;;
10805;SDS011;5455;53.224;6.000;2023-01-23T13:56:32;2.53;;;2.33;;
10805;SDS011;5455;53.224;6.000;2023-01-23T13:59:30;3.10;;;2.80;;
10805;SDS011;5455;53.224;6.000;2023-01-23T14:05:28;3.87;;;2.77;;
10805;SDS011;5455;53.224;6.000;2023-01-23T14:08:16;3.00;;;2.70;;
10805;SDS011;5455;53.224;6.000;2023-01-23T14:10:59;2.90;;;2.57;;
10805;SDS011;5455;53.224;6.000;2023-01-23T14:16:30;5.07;;;3.27;;
10805;SDS011;5455;53.224;6.000;2023-01-23T14:22:08;4.47;;;3.17;;
10805;SDS011;5455;53.224;6.000;2023-01-23T14:24:43;3.90;;;3.37;;
10805;SDS011;5455;53.224;6.000;2023-01-23T14:27:19;4.03;;;3.20;;
10805;SDS011;5455;53.224;6.000;2023-01-23T14:30:08;3.17;;;2.77;;
10805;SDS011;5455;53.224;6.000;2023-01-23T14:32:47;3.37;;;2.97;;
10805;SDS011;5455;53.224;6.000;2023-01-23T14:35:15;4.43;;;3.40;;
10805;SDS011;5455;53.224;6.000;2023-01-23T14:37:50;3.97;;;3.20;;
10805;SDS011;5455;53.224;6.000;2023-01-23T14:40:20;3.90;;;3.50;;
10805;SDS011;5455;53.224;6.000;2023-01-23T14:42:56;4.87;;;3.20;;
10805;SDS011;5455;53.224;6.000;2023-01-23T14:45:33;3.37;;;2.97;;
10805;SDS011;5455;53.224;6.000;2023-01-23T14:48:02;3.50;;;3.20;;
10805;SDS011;5455;53.224;6.000;2023-01-23T14:50:33;4.00;;;3.10;;
10805;SDS011;5455;53.224;6.000;2023-01-23T14:53:04;3.67;;;2.93;;
10805;SDS011;5455;53.224;6.000;2023-01-23T14:55:38;3.10;;;2.80;;
10805;SDS011;5455;53.224;6.000;2023-01-23T14:58:17;3.20;;;2.87;;
10805;SDS011;5455;53.224;6.000;2023-01-23T15:00:49;3.17;;;2.40;;
10805;SDS011;5455;53.224;6.000;2023-01-23T15:06:19;3.03;;;2.60;;
10805;SDS011;5455;53.224;6.000;2023-01-23T15:08:47;3.10;;;2.80;;
10805;SDS011;5455;53.224;6.000;2023-01-23T15:11:23;3.40;;;3.10;;
10805;SDS011;5455;53.224;6.000;2023-01-23T15:13:53;3.70;;;3.30;;
10805;SDS011;5455;53.224;6.000;2023-01-23T15:16:31;2.67;;;2.40;;
10805;SDS011;5455;53.224;6.000;2023-01-23T15:19:18;3.80;;;2.47;;
10805;SDS011;5455;53.224;6.000;2023-01-23T15:21:48;3.83;;;2.50;;
10805;SDS011;5455;53.224;6.000;2023-01-23T15:24:18;4.47;;;2.50;;
10805;SDS011;5455;53.224;6.000;2023-01-23T15:29:20;2.00;;;1.80;;
10805;SDS011;5455;53.224;6.000;2023-01-23T15:31:48;2.67;;;2.10;;
10805;SDS011;5455;53.224;6.000;2023-01-23T15:34:21;2.67;;;2.10;;
10805;SDS011;5455;53.224;6.000;2023-01-23T15:37:36;2.30;;;2.03;;
10805;SDS011;5455;53.224;6.000;2023-01-23T15:39:39;3.17;;;2.30;;
10805;SDS011;5455;53.224;6.000;2023-01-23T15:42:30;3.27;;;2.40;;
10805;SDS011;5455;53.224;6.000;2023-01-23T15:44:59;2.40;;;2.20;;
10805;SDS011;5455;53.224;6.000;2023-01-23T15:47:28;3.30;;;2.73;;
10805;SDS011;5455;53.224;6.000;2023-01-23T15:49:55;2.90;;;2.50;;
10805;SDS011;5455;53.224;6.000;2023-01-23T15:52:43;2.63;;;2.40;;
10805;SDS011;5455;53.224;6.000;2023-01-23T15:55:18;3.03;;;2.80;;
10805;SDS011;5455;53.224;6.000;2023-01-23T15:57:48;3.20;;;2.90;;
10805;SDS011;5455;53.224;6.000;2023-01-23T16:02:44;2.90;;;2.70;;
10805;SDS011;5455;53.224;6.000;2023-01-23T16:05:22;3.30;;;3.00;;
10805;SDS011;5455;53.224;6.000;2023-01-23T16:07:52;2.80;;;2.50;;
10805;SDS011;5455;53.224;6.000;2023-01-23T16:10:21;3.30;;;2.70;;
10805;SDS011;5455;53.224;6.000;2023-01-23T16:12:51;2.70;;;2.33;;
10805;SDS011;5455;53.224;6.000;2023-01-23T16:15:27;2.47;;;2.27;;
10805;SDS011;5455;53.224;6.000;2023-01-23T16:17:56;3.13;;;2.83;;
10805;SDS011;5455;53.224;6.000;2023-01-23T16:20:40;2.93;;;2.63;;
10805;SDS011;5455;53.224;6.000;2023-01-23T16:26:01;3.00;;;2.60;;
10805;SDS011;5455;53.224;6.000;2023-01-23T16:28:28;4.37;;;3.80;;
10805;SDS011;5455;53.224;6.000;2023-01-23T16:30:57;3.30;;;3.00;;
10805;SDS011;5455;53.224;6.000;2023-01-23T16:33:24;3.53;;;2.90;;
10805;SDS011;5455;53.224;6.000;2023-01-23T16:35:51;3.50;;;3.20;;
10805;SDS011;5455;53.224;6.000;2023-01-23T16:38:20;3.10;;;2.90;;
10805;SDS011;5455;53.224;6.000;2023-01-23T16:40:50;3.40;;;3.10;;
10805;SDS011;5455;53.224;6.000;2023-01-23T16:43:19;4.00;;;3.10;;
10805;SDS011;5455;53.224;6.000;2023-01-23T16:45:47;3.17;;;2.80;;
10805;SDS011;5455;53.224;6.000;2023-01-23T16:48:15;3.77;;;3.40;;
10805;SDS011;5455;53.224;6.000;2023-01-23T16:50:53;4.47;;;3.80;;
10805;SDS011;5455;53.224;6.000;2023-01-23T16:53:25;7.17;;;5.40;;
10805;SDS011;5455;53.224;6.000;2023-01-23T16:55:56;4.10;;;3.30;;
10805;SDS011;5455;53.224;6.000;2023-01-23T16:58:25;4.43;;;3.70;;
10805;SDS011;5455;53.224;6.000;2023-01-23T17:01:06;5.63;;;4.00;;
10805;SDS011;5455;53.224;6.000;2023-01-23T17:03:39;5.77;;;4.63;;
10805;SDS011;5455;53.224;6.000;2023-01-23T17:06:13;7.17;;;5.00;;
10805;SDS011;5455;53.224;6.000;2023-01-23T17:08:41;5.07;;;3.77;;
10805;SDS011;5455;53.224;6.000;2023-01-23T17:11:09;4.83;;;3.70;;
10805;SDS011;5455;53.224;6.000;2023-01-23T17:13:44;4.77;;;3.77;;
10805;SDS011;5455;53.224;6.000;2023-01-23T17:16:11;4.67;;;3.63;;
10805;SDS011;5455;53.224;6.000;2023-01-23T17:18:52;4.40;;;3.50;;
10805;SDS011;5455;53.224;6.000;2023-01-23T17:21:20;4.53;;;3.30;;
10805;SDS011;5455;53.224;6.000;2023-01-23T17:23:50;4.40;;;3.67;;
10805;SDS011;5455;53.224;6.000;2023-01-23T17:26:18;5.63;;;4.17;;
10805;SDS011;5455;53.224;6.000;2023-01-23T17:28:46;4.37;;;3.97;;
10805;SDS011;5455;53.224;6.000;2023-01-23T17:31:21;4.53;;;4.13;;
10805;SDS011;5455;53.224;6.000;2023-01-23T17:33:51;4.93;;;4.10;;
10805;SDS011;5455;53.224;6.000;2023-01-23T17:36:18;5.47;;;4.00;;
10805;SDS011;5455;53.224;6.000;2023-01-23T17:38:46;5.20;;;3.60;;
10805;SDS011;5455;53.224;6.000;2023-01-23T17:41:13;4.50;;;3.90;;
10805;SDS011;5455;53.224;6.000;2023-01-23T17:43:41;4.67;;;3.77;;
10805;SDS011;5455;53.224;6.000;2023-01-23T17:46:19;6.03;;;5.27;;
10805;SDS011;5455;53.224;6.000;2023-01-23T17:48:48;5.50;;;4.60;;
10805;SDS011;5455;53.224;6.000;2023-01-23T17:51:16;4.73;;;4.20;;